sensor_id;sensor_type;location;lat;lon;timestamp;P1;durP1;ratioP1;P2;durP2;ratioP2
39772;SDS011;25451;51.960;6.250;2022-09-28T00:00:25;6.63;;;3.10;;
39772;SDS011;25451;51.960;6.250;2022-09-28T00:02:51;5.60;;;3.23;;
39772;SDS011;25451;51.960;6.250;2022-09-28T00:05:20;6.78;;;3.60;;
39772;SDS011;25451;51.960;6.250;2022-09-28T00:07:45;7.65;;;3.60;;
39772;SDS011;25451;51.960;6.250;2022-09-28T00:10:10;7.68;;;3.42;;
39772;SDS011;25451;51.960;6.250;2022-09-28T00:12:36;5.67;;;3.47;;
39772;SDS011;25451;51.960;6.250;2022-09-28T00:15:02;5.67;;;3.27;;
39772;SDS011;25451;51.960;6.250;2022-09-28T00:17:27;5.30;;;3.30;;
39772;SDS011;25451;51.960;6.250;2022-09-28T00:19:54;7.37;;;3.67;;
39772;SDS011;25451;51.960;6.250;2022-09-28T00:22:20;7.78;;;3.35;;
39772;SDS011;25451;51.960;6.250;2022-09-28T00:24:45;8.93;;;3.83;;
39772;SDS011;25451;51.960;6.250;2022-09-28T00:27:11;5.43;;;2.97;;
39772;SDS011;25451;51.960;6.250;2022-09-28T00:29:36;7.03;;;3.50;;
39772;SDS011;25451;51.960;6.250;2022-09-28T00:32:03;6.78;;;3.40;;
39772;SDS011;25451;51.960;6.250;2022-09-28T00:34:34;8.43;;;4.10;;
39772;SDS011;25451;51.960;6.250;2022-09-28T00:37:05;7.78;;;4.00;;
39772;SDS011;25451;51.960;6.250;2022-09-28T00:39:32;8.15;;;3.97;;
39772;SDS011;25451;51.960;6.250;2022-09-28T00:42:00;6.03;;;3.50;;
39772;SDS011;25451;51.960;6.250;2022-09-28T00:44:36;8.38;;;4.10;;
39772;SDS011;25451;51.960;6.250;2022-09-28T00:52:40;7.45;;;4.20;;
39772;SDS011;25451;51.960;6.250;2022-09-28T00:55:32;8.15;;;4.30;;
39772;SDS011;25451;51.960;6.250;2022-09-28T00:58:01;8.20;;;4.40;;
39772;SDS011;25451;51.960;6.250;2022-09-28T01:00:29;6.70;;;4.10;;
39772;SDS011;25451;51.960;6.250;2022-09-28T01:02:55;10.38;;;4.32;;
39772;SDS011;25451;51.960;6.250;2022-09-28T01:05:21;8.15;;;4.60;;
39772;SDS011;25451;51.960;6.250;2022-09-28T01:07:48;8.40;;;4.60;;
39772;SDS011;25451;51.960;6.250;2022-09-28T01:10:14;8.20;;;4.70;;
39772;SDS011;25451;51.960;6.250;2022-09-28T01:12:40;8.30;;;4.73;;
39772;SDS011;25451;51.960;6.250;2022-09-28T01:15:05;7.47;;;4.43;;
39772;SDS011;25451;51.960;6.250;2022-09-28T01:28:50;9.63;;;4.67;;
39772;SDS011;25451;51.960;6.250;2022-09-28T01:31:19;8.77;;;4.38;;
39772;SDS011;25451;51.960;6.250;2022-09-28T01:33:54;7.82;;;4.45;;
39772;SDS011;25451;51.960;6.250;2022-09-28T01:36:26;10.48;;;4.60;;
39772;SDS011;25451;51.960;6.250;2022-09-28T01:38:58;8.68;;;4.35;;
39772;SDS011;25451;51.960;6.250;2022-09-28T01:41:29;8.93;;;4.60;;
39772;SDS011;25451;51.960;6.250;2022-09-28T01:44:00;8.60;;;4.70;;
39772;SDS011;25451;51.960;6.250;2022-09-28T01:46:32;9.25;;;4.60;;
39772;SDS011;25451;51.960;6.250;2022-09-28T01:49:09;8.52;;;4.65;;
39772;SDS011;25451;51.960;6.250;2022-09-28T01:51:42;7.85;;;4.47;;
39772;SDS011;25451;51.960;6.250;2022-09-28T01:54:37;8.00;;;4.37;;
39772;SDS011;25451;51.960;6.250;2022-09-28T01:57:06;11.68;;;5.15;;
39772;SDS011;25451;51.960;6.250;2022-09-28T01:59:39;11.10;;;5.82;;
39772;SDS011;25451;51.960;6.250;2022-09-28T02:02:14;12.23;;;5.53;;
39772;SDS011;25451;51.960;6.250;2022-09-28T02:04:44;9.75;;;5.07;;
39772;SDS011;25451;51.960;6.250;2022-09-28T02:07:32;9.40;;;4.90;;
39772;SDS011;25451;51.960;6.250;2022-09-28T02:10:02;10.07;;;5.65;;
39772;SDS011;25451;51.960;6.250;2022-09-28T02:12:37;9.98;;;5.15;;
39772;SDS011;25451;51.960;6.250;2022-09-28T02:15:11;10.50;;;5.47;;
39772;SDS011;25451;51.960;6.250;2022-09-28T02:17:41;8.70;;;5.10;;
39772;SDS011;25451;51.960;6.250;2022-09-28T02:20:07;9.73;;;5.37;;
39772;SDS011;25451;51.960;6.250;2022-09-28T02:22:49;10.52;;;5.25;;
39772;SDS011;25451;51.960;6.250;2022-09-28T02:25:39;9.40;;;5.28;;
39772;SDS011;25451;51.960;6.250;2022-09-28T02:28:14;12.85;;;6.05;;
39772;SDS011;25451;51.960;6.250;2022-09-28T02:30:40;11.20;;;5.70;;
39772;SDS011;25451;51.960;6.250;2022-09-28T02:33:10;10.63;;;5.22;;
39772;SDS011;25451;51.960;6.250;2022-09-28T02:35:40;9.02;;;5.18;;
39772;SDS011;25451;51.960;6.250;2022-09-28T02:38:07;8.13;;;5.00;;
39772;SDS011;25451;51.960;6.250;2022-09-28T02:40:33;9.10;;;5.22;;
39772;SDS011;25451;51.960;6.250;2022-09-28T02:43:20;8.82;;;5.18;;
39772;SDS011;25451;51.960;6.250;2022-09-28T02:45:58;9.35;;;4.78;;
39772;SDS011;25451;51.960;6.250;2022-09-28T02:51:03;8.07;;;4.60;;
39772;SDS011;25451;51.960;6.250;2022-09-28T02:59:19;9.18;;;4.78;;
39772;SDS011;25451;51.960;6.250;2022-09-28T03:01:52;8.15;;;4.53;;
39772;SDS011;25451;51.960;6.250;2022-09-28T03:04:27;9.50;;;4.82;;
39772;SDS011;25451;51.960;6.250;2022-09-28T03:07:56;10.57;;;5.35;;
39772;SDS011;25451;51.960;6.250;2022-09-28T03:12:43;9.73;;;4.90;;
39772;SDS011;25451;51.960;6.250;2022-09-28T03:15:13;10.60;;;4.57;;
39772;SDS011;25451;51.960;6.250;2022-09-28T03:17:45;8.32;;;4.63;;
39772;SDS011;25451;51.960;6.250;2022-09-28T03:20:10;10.63;;;5.23;;
39772;SDS011;25451;51.960;6.250;2022-09-28T03:22:36;9.43;;;4.67;;
39772;SDS011;25451;51.960;6.250;2022-09-28T03:25:01;11.90;;;5.85;;
39772;SDS011;25451;51.960;6.250;2022-09-28T03:27:27;9.73;;;5.60;;
39772;SDS011;25451;51.960;6.250;2022-09-28T03:29:52;11.73;;;6.03;;
39772;SDS011;25451;51.960;6.250;2022-09-28T03:32:17;14.27;;;6.27;;
39772;SDS011;25451;51.960;6.250;2022-09-28T03:34:43;10.67;;;5.77;;
39772;SDS011;25451;51.960;6.250;2022-09-28T03:37:08;11.13;;;5.78;;
39772;SDS011;25451;51.960;6.250;2022-09-28T03:39:33;11.50;;;5.40;;
39772;SDS011;25451;51.960;6.250;2022-09-28T03:41:59;12.68;;;6.10;;
39772;SDS011;25451;51.960;6.250;2022-09-28T03:44:25;11.37;;;6.00;;
39772;SDS011;25451;51.960;6.250;2022-09-28T03:46:50;11.48;;;6.07;;
39772;SDS011;25451;51.960;6.250;2022-09-28T03:49:15;12.05;;;6.07;;
39772;SDS011;25451;51.960;6.250;2022-09-28T03:51:40;10.30;;;5.77;;
39772;SDS011;25451;51.960;6.250;2022-09-28T03:54:06;9.90;;;6.03;;
39772;SDS011;25451;51.960;6.250;2022-09-28T03:56:31;9.40;;;5.37;;
39772;SDS011;25451;51.960;6.250;2022-09-28T03:58:57;12.13;;;5.93;;
39772;SDS011;25451;51.960;6.250;2022-09-28T04:01:22;13.10;;;5.80;;
39772;SDS011;25451;51.960;6.250;2022-09-28T04:03:51;9.63;;;5.50;;
39772;SDS011;25451;51.960;6.250;2022-09-28T04:06:19;10.13;;;5.78;;
39772;SDS011;25451;51.960;6.250;2022-09-28T04:08:44;9.07;;;5.32;;
39772;SDS011;25451;51.960;6.250;2022-09-28T04:11:09;10.27;;;4.63;;
39772;SDS011;25451;51.960;6.250;2022-09-28T04:13:35;10.13;;;5.47;;
39772;SDS011;25451;51.960;6.250;2022-09-28T04:16:01;9.55;;;5.50;;
39772;SDS011;25451;51.960;6.250;2022-09-28T04:18:26;10.40;;;5.30;;
39772;SDS011;25451;51.960;6.250;2022-09-28T04:23:30;12.73;;;6.13;;
39772;SDS011;25451;51.960;6.250;2022-09-28T04:25:56;8.75;;;4.97;;
39772;SDS011;25451;51.960;6.250;2022-09-28T04:28:22;9.32;;;5.00;;
39772;SDS011;25451;51.960;6.250;2022-09-28T04:31:09;9.57;;;4.80;;
39772;SDS011;25451;51.960;6.250;2022-09-28T04:33:37;7.35;;;4.00;;
39772;SDS011;25451;51.960;6.250;2022-09-28T04:36:02;9.27;;;4.87;;
39772;SDS011;25451;51.960;6.250;2022-09-28T04:38:28;8.95;;;4.78;;
39772;SDS011;25451;51.960;6.250;2022-09-28T04:40:53;9.70;;;4.87;;
39772;SDS011;25451;51.960;6.250;2022-09-28T04:43:19;8.37;;;5.10;;
39772;SDS011;25451;51.960;6.250;2022-09-28T04:45:44;8.57;;;4.80;;
39772;SDS011;25451;51.960;6.250;2022-09-28T04:48:09;8.73;;;5.03;;
39772;SDS011;25451;51.960;6.250;2022-09-28T04:50:35;9.40;;;4.87;;
39772;SDS011;25451;51.960;6.250;2022-09-28T04:53:00;10.03;;;5.07;;
39772;SDS011;25451;51.960;6.250;2022-09-28T04:55:26;8.87;;;4.50;;
39772;SDS011;25451;51.960;6.250;2022-09-28T04:57:56;8.90;;;4.88;;
39772;SDS011;25451;51.960;6.250;2022-09-28T05:00:27;7.85;;;5.03;;
39772;SDS011;25451;51.960;6.250;2022-09-28T05:02:53;8.43;;;5.10;;
39772;SDS011;25451;51.960;6.250;2022-09-28T05:05:19;6.87;;;4.03;;
39772;SDS011;25451;51.960;6.250;2022-09-28T05:07:45;8.23;;;5.07;;
39772;SDS011;25451;51.960;6.250;2022-09-28T05:10:10;9.77;;;4.93;;
39772;SDS011;25451;51.960;6.250;2022-09-28T05:12:35;13.93;;;5.23;;
39772;SDS011;25451;51.960;6.250;2022-09-28T05:15:01;8.40;;;4.70;;
39772;SDS011;25451;51.960;6.250;2022-09-28T05:17:27;7.95;;;4.63;;
39772;SDS011;25451;51.960;6.250;2022-09-28T05:19:53;9.03;;;4.70;;
39772;SDS011;25451;51.960;6.250;2022-09-28T05:22:18;9.43;;;4.37;;
39772;SDS011;25451;51.960;6.250;2022-09-28T05:24:43;9.77;;;4.60;;
39772;SDS011;25451;51.960;6.250;2022-09-28T05:27:10;7.35;;;4.35;;
39772;SDS011;25451;51.960;6.250;2022-09-28T05:29:35;9.83;;;4.90;;
39772;SDS011;25451;51.960;6.250;2022-09-28T05:32:01;9.35;;;4.68;;
39772;SDS011;25451;51.960;6.250;2022-09-28T05:34:26;9.40;;;4.57;;
39772;SDS011;25451;51.960;6.250;2022-09-28T05:36:52;9.17;;;4.90;;
39772;SDS011;25451;51.960;6.250;2022-09-28T05:39:17;11.30;;;4.87;;
39772;SDS011;25451;51.960;6.250;2022-09-28T05:41:42;10.67;;;5.23;;
39772;SDS011;25451;51.960;6.250;2022-09-28T05:44:08;10.10;;;4.37;;
39772;SDS011;25451;51.960;6.250;2022-09-28T05:46:33;6.47;;;4.30;;
39772;SDS011;25451;51.960;6.250;2022-09-28T05:48:58;8.10;;;4.45;;
39772;SDS011;25451;51.960;6.250;2022-09-28T05:51:24;8.15;;;4.40;;
39772;SDS011;25451;51.960;6.250;2022-09-28T05:53:49;9.57;;;5.07;;
39772;SDS011;25451;51.960;6.250;2022-09-28T05:56:17;8.98;;;4.35;;
39772;SDS011;25451;51.960;6.250;2022-09-28T05:58:42;7.57;;;3.67;;
39772;SDS011;25451;51.960;6.250;2022-09-28T06:01:08;6.87;;;4.07;;
39772;SDS011;25451;51.960;6.250;2022-09-28T06:03:33;8.60;;;4.47;;
39772;SDS011;25451;51.960;6.250;2022-09-28T06:05:59;8.17;;;4.67;;
39772;SDS011;25451;51.960;6.250;2022-09-28T06:08:26;9.10;;;4.68;;
39772;SDS011;25451;51.960;6.250;2022-09-28T06:10:52;8.23;;;4.90;;
39772;SDS011;25451;51.960;6.250;2022-09-28T06:13:17;8.83;;;4.87;;
39772;SDS011;25451;51.960;6.250;2022-09-28T06:15:42;8.57;;;4.77;;
39772;SDS011;25451;51.960;6.250;2022-09-28T06:18:10;8.70;;;5.00;;
39772;SDS011;25451;51.960;6.250;2022-09-28T06:20:38;8.32;;;4.80;;
39772;SDS011;25451;51.960;6.250;2022-09-28T06:23:05;9.00;;;4.43;;
39772;SDS011;25451;51.960;6.250;2022-09-28T06:25:31;8.95;;;4.30;;
39772;SDS011;25451;51.960;6.250;2022-09-28T06:27:57;9.23;;;4.27;;
39772;SDS011;25451;51.960;6.250;2022-09-28T06:30:28;7.55;;;4.50;;
39772;SDS011;25451;51.960;6.250;2022-09-28T06:32:55;9.48;;;4.95;;
39772;SDS011;25451;51.960;6.250;2022-09-28T06:35:22;9.43;;;4.55;;
39772;SDS011;25451;51.960;6.250;2022-09-28T06:37:49;7.70;;;4.10;;
39772;SDS011;25451;51.960;6.250;2022-09-28T06:40:15;7.07;;;4.03;;
39772;SDS011;25451;51.960;6.250;2022-09-28T06:42:41;6.90;;;4.00;;
39772;SDS011;25451;51.960;6.250;2022-09-28T06:45:06;8.57;;;4.10;;
39772;SDS011;25451;51.960;6.250;2022-09-28T06:47:32;6.53;;;4.20;;
39772;SDS011;25451;51.960;6.250;2022-09-28T06:49:58;6.43;;;4.13;;
39772;SDS011;25451;51.960;6.250;2022-09-28T06:52:23;6.47;;;4.00;;
39772;SDS011;25451;51.960;6.250;2022-09-28T06:54:49;6.82;;;4.07;;
39772;SDS011;25451;51.960;6.250;2022-09-28T06:57:15;7.57;;;3.67;;
39772;SDS011;25451;51.960;6.250;2022-09-28T06:59:40;6.72;;;3.92;;
39772;SDS011;25451;51.960;6.250;2022-09-28T07:02:07;8.50;;;3.90;;
39772;SDS011;25451;51.960;6.250;2022-09-28T07:04:34;7.15;;;4.00;;
39772;SDS011;25451;51.960;6.250;2022-09-28T07:06:59;7.90;;;3.53;;
39772;SDS011;25451;51.960;6.250;2022-09-28T07:09:25;7.03;;;3.63;;
39772;SDS011;25451;51.960;6.250;2022-09-28T07:11:50;7.73;;;4.10;;
39772;SDS011;25451;51.960;6.250;2022-09-28T07:14:16;6.45;;;3.70;;
39772;SDS011;25451;51.960;6.250;2022-09-28T07:16:43;5.53;;;3.20;;
39772;SDS011;25451;51.960;6.250;2022-09-28T07:19:10;8.13;;;3.45;;
39772;SDS011;25451;51.960;6.250;2022-09-28T07:21:35;7.10;;;4.00;;
39772;SDS011;25451;51.960;6.250;2022-09-28T07:24:00;6.50;;;3.70;;
39772;SDS011;25451;51.960;6.250;2022-09-28T07:26:26;6.32;;;3.28;;
39772;SDS011;25451;51.960;6.250;2022-09-28T07:28:51;6.87;;;3.30;;
39772;SDS011;25451;51.960;6.250;2022-09-28T07:31:18;6.32;;;3.60;;
39772;SDS011;25451;51.960;6.250;2022-09-28T07:33:44;6.57;;;3.70;;
39772;SDS011;25451;51.960;6.250;2022-09-28T07:36:11;7.50;;;3.40;;
39772;SDS011;25451;51.960;6.250;2022-09-28T07:38:36;7.18;;;3.40;;
39772;SDS011;25451;51.960;6.250;2022-09-28T07:41:02;6.67;;;3.67;;
39772;SDS011;25451;51.960;6.250;2022-09-28T07:43:37;6.88;;;3.65;;
39772;SDS011;25451;51.960;6.250;2022-09-28T07:46:06;7.35;;;3.58;;
39772;SDS011;25451;51.960;6.250;2022-09-28T07:48:38;7.10;;;3.85;;
39772;SDS011;25451;51.960;6.250;2022-09-28T07:51:05;6.73;;;3.37;;
39772;SDS011;25451;51.960;6.250;2022-09-28T07:53:31;6.20;;;3.67;;
39772;SDS011;25451;51.960;6.250;2022-09-28T07:55:57;5.88;;;3.40;;
39772;SDS011;25451;51.960;6.250;2022-09-28T07:58:26;6.70;;;3.58;;
39772;SDS011;25451;51.960;6.250;2022-09-28T08:00:51;7.93;;;3.60;;
39772;SDS011;25451;51.960;6.250;2022-09-28T08:03:17;6.53;;;3.50;;
39772;SDS011;25451;51.960;6.250;2022-09-28T08:05:44;7.40;;;3.70;;
39772;SDS011;25451;51.960;6.250;2022-09-28T08:08:09;6.70;;;3.77;;
39772;SDS011;25451;51.960;6.250;2022-09-28T08:10:35;7.45;;;3.85;;
39772;SDS011;25451;51.960;6.250;2022-09-28T08:13:01;6.37;;;3.73;;
39772;SDS011;25451;51.960;6.250;2022-09-28T08:15:28;4.95;;;3.35;;
39772;SDS011;25451;51.960;6.250;2022-09-28T08:18:00;6.07;;;3.53;;
39772;SDS011;25451;51.960;6.250;2022-09-28T08:20:25;8.10;;;3.70;;
39772;SDS011;25451;51.960;6.250;2022-09-28T08:23:09;5.75;;;3.28;;
39772;SDS011;25451;51.960;6.250;2022-09-28T08:25:35;6.63;;;3.08;;
39772;SDS011;25451;51.960;6.250;2022-09-28T08:28:02;5.50;;;3.20;;
39772;SDS011;25451;51.960;6.250;2022-09-28T08:30:28;5.80;;;3.20;;
39772;SDS011;25451;51.960;6.250;2022-09-28T08:32:53;4.72;;;2.83;;
39772;SDS011;25451;51.960;6.250;2022-09-28T08:35:18;5.40;;;2.90;;
39772;SDS011;25451;51.960;6.250;2022-09-28T08:37:50;5.00;;;2.63;;
39772;SDS011;25451;51.960;6.250;2022-09-28T08:40:19;5.97;;;2.90;;
39772;SDS011;25451;51.960;6.250;2022-09-28T08:42:48;4.70;;;2.80;;
39772;SDS011;25451;51.960;6.250;2022-09-28T08:45:20;5.13;;;2.60;;
39772;SDS011;25451;51.960;6.250;2022-09-28T08:47:54;7.80;;;2.65;;
39772;SDS011;25451;51.960;6.250;2022-09-28T08:50:48;4.15;;;2.60;;
39772;SDS011;25451;51.960;6.250;2022-09-28T08:55:48;5.05;;;2.30;;
39772;SDS011;25451;51.960;6.250;2022-09-28T08:58:19;3.65;;;2.03;;
39772;SDS011;25451;51.960;6.250;2022-09-28T09:00:50;4.55;;;2.20;;
39772;SDS011;25451;51.960;6.250;2022-09-28T09:03:19;3.40;;;2.10;;
39772;SDS011;25451;51.960;6.250;2022-09-28T09:08:41;3.60;;;2.03;;
39772;SDS011;25451;51.960;6.250;2022-09-28T09:14:25;2.97;;;1.85;;
39772;SDS011;25451;51.960;6.250;2022-09-28T09:16:58;4.90;;;1.90;;
39772;SDS011;25451;51.960;6.250;2022-09-28T09:20:37;4.30;;;1.55;;
39772;SDS011;25451;51.960;6.250;2022-09-28T09:25:24;3.97;;;1.50;;
39772;SDS011;25451;51.960;6.250;2022-09-28T09:30:51;1.77;;;1.20;;
39772;SDS011;25451;51.960;6.250;2022-09-28T09:39:08;3.05;;;1.38;;
39772;SDS011;25451;51.960;6.250;2022-09-28T09:47:32;1.60;;;0.90;;
39772;SDS011;25451;51.960;6.250;2022-09-28T09:52:56;2.28;;;1.13;;
39772;SDS011;25451;51.960;6.250;2022-09-28T09:55:28;2.45;;;1.00;;
39772;SDS011;25451;51.960;6.250;2022-09-28T09:58:15;3.60;;;1.00;;
39772;SDS011;25451;51.960;6.250;2022-09-28T10:00:50;2.90;;;0.82;;
39772;SDS011;25451;51.960;6.250;2022-09-28T10:05:55;2.10;;;0.90;;
39772;SDS011;25451;51.960;6.250;2022-09-28T10:08:24;1.15;;;0.70;;
39772;SDS011;25451;51.960;6.250;2022-09-28T10:10:53;1.70;;;0.73;;
39772;SDS011;25451;51.960;6.250;2022-09-28T10:13:26;1.77;;;0.70;;
39772;SDS011;25451;51.960;6.250;2022-09-28T10:15:53;1.50;;;0.63;;
39772;SDS011;25451;51.960;6.250;2022-09-28T10:18:19;2.00;;;0.80;;
39772;SDS011;25451;51.960;6.250;2022-09-28T10:20:45;2.83;;;0.80;;
39772;SDS011;25451;51.960;6.250;2022-09-28T10:23:23;1.83;;;0.80;;
39772;SDS011;25451;51.960;6.250;2022-09-28T10:26:12;1.60;;;0.90;;
39772;SDS011;25451;51.960;6.250;2022-09-28T10:28:47;2.05;;;0.98;;
39772;SDS011;25451;51.960;6.250;2022-09-28T10:34:02;2.78;;;0.80;;
39772;SDS011;25451;51.960;6.250;2022-09-28T10:36:29;4.20;;;0.80;;
39772;SDS011;25451;51.960;6.250;2022-09-28T10:39:02;1.02;;;0.70;;
39772;SDS011;25451;51.960;6.250;2022-09-28T10:41:48;1.90;;;0.70;;
39772;SDS011;25451;51.960;6.250;2022-09-28T10:44:15;1.50;;;0.80;;
39772;SDS011;25451;51.960;6.250;2022-09-28T10:46:43;1.60;;;0.55;;
39772;SDS011;25451;51.960;6.250;2022-09-28T10:49:20;1.83;;;0.80;;
39772;SDS011;25451;51.960;6.250;2022-09-28T10:51:51;1.80;;;0.80;;
39772;SDS011;25451;51.960;6.250;2022-09-28T10:54:22;4.78;;;0.80;;
39772;SDS011;25451;51.960;6.250;2022-09-28T10:56:50;2.95;;;0.98;;
39772;SDS011;25451;51.960;6.250;2022-09-28T11:01:58;1.17;;;0.70;;
39772;SDS011;25451;51.960;6.250;2022-09-28T11:04:27;2.10;;;0.80;;
39772;SDS011;25451;51.960;6.250;2022-09-28T11:06:54;3.17;;;0.80;;
39772;SDS011;25451;51.960;6.250;2022-09-28T11:12:02;1.63;;;0.70;;
39772;SDS011;25451;51.960;6.250;2022-09-28T11:14:34;2.05;;;0.50;;
39772;SDS011;25451;51.960;6.250;2022-09-28T11:17:23;3.17;;;0.70;;
39772;SDS011;25451;51.960;6.250;2022-09-28T11:20:01;1.67;;;0.60;;
39772;SDS011;25451;51.960;6.250;2022-09-28T11:25:23;0.85;;;0.60;;
39772;SDS011;25451;51.960;6.250;2022-09-28T11:32:59;0.85;;;0.50;;
39772;SDS011;25451;51.960;6.250;2022-09-28T11:38:17;2.00;;;0.63;;
39772;SDS011;25451;51.960;6.250;2022-09-28T11:49:04;2.63;;;0.75;;
39772;SDS011;25451;51.960;6.250;2022-09-28T11:51:40;2.25;;;0.60;;
39772;SDS011;25451;51.960;6.250;2022-09-28T11:54:29;1.45;;;0.60;;
39772;SDS011;25451;51.960;6.250;2022-09-28T11:56:57;3.05;;;0.50;;
39772;SDS011;25451;51.960;6.250;2022-09-28T11:59:27;1.52;;;0.60;;
39772;SDS011;25451;51.960;6.250;2022-09-28T12:05:23;2.35;;;0.60;;
39772;SDS011;25451;51.960;6.250;2022-09-28T12:07:56;1.10;;;0.50;;
39772;SDS011;25451;51.960;6.250;2022-09-28T12:10:39;0.90;;;0.50;;
39772;SDS011;25451;51.960;6.250;2022-09-28T12:13:08;1.55;;;0.50;;
39772;SDS011;25451;51.960;6.250;2022-09-28T12:18:51;2.20;;;0.60;;
39772;SDS011;25451;51.960;6.250;2022-09-28T12:24:03;0.70;;;0.47;;
39772;SDS011;25451;51.960;6.250;2022-09-28T12:34:49;1.50;;;0.50;;
39772;SDS011;25451;51.960;6.250;2022-09-28T12:42:54;1.17;;;0.50;;
39772;SDS011;25451;51.960;6.250;2022-09-28T12:45:46;1.23;;;0.50;;
39772;SDS011;25451;51.960;6.250;2022-09-28T12:48:31;0.88;;;0.50;;
39772;SDS011;25451;51.960;6.250;2022-09-28T12:51:32;0.63;;;0.40;;
39772;SDS011;25451;51.960;6.250;2022-09-28T12:54:21;1.38;;;0.40;;
39772;SDS011;25451;51.960;6.250;2022-09-28T12:57:33;0.90;;;0.40;;
39772;SDS011;25451;51.960;6.250;2022-09-28T13:00:07;2.90;;;0.65;;
39772;SDS011;25451;51.960;6.250;2022-09-28T13:05:40;1.42;;;0.47;;
39772;SDS011;25451;51.960;6.250;2022-09-28T13:24:31;0.60;;;0.40;;
39772;SDS011;25451;51.960;6.250;2022-09-28T13:27:04;1.05;;;0.40;;
39772;SDS011;25451;51.960;6.250;2022-09-28T13:29:37;2.35;;;0.60;;
39772;SDS011;25451;51.960;6.250;2022-09-28T13:32:03;0.40;;;0.38;;
39772;SDS011;25451;51.960;6.250;2022-09-28T13:34:32;1.58;;;0.50;;
39772;SDS011;25451;51.960;6.250;2022-09-28T13:42:21;0.65;;;0.40;;
39772;SDS011;25451;51.960;6.250;2022-09-28T13:47:40;0.60;;;0.50;;
39772;SDS011;25451;51.960;6.250;2022-09-28T13:55:31;0.65;;;0.40;;
39772;SDS011;25451;51.960;6.250;2022-09-28T13:58:01;1.30;;;0.50;;
39772;SDS011;25451;51.960;6.250;2022-09-28T14:00:32;1.90;;;0.47;;
39772;SDS011;25451;51.960;6.250;2022-09-28T14:05:33;0.40;;;0.40;;
39772;SDS011;25451;51.960;6.250;2022-09-28T14:16:21;1.58;;;0.40;;
39772;SDS011;25451;51.960;6.250;2022-09-28T14:18:48;0.55;;;0.40;;
39772;SDS011;25451;51.960;6.250;2022-09-28T14:24:10;0.80;;;0.40;;
39772;SDS011;25451;51.960;6.250;2022-09-28T14:31:57;1.85;;;0.50;;
39772;SDS011;25451;51.960;6.250;2022-09-28T14:34:37;1.23;;;0.40;;
39772;SDS011;25451;51.960;6.250;2022-09-28T14:37:17;0.50;;;0.40;;
39772;SDS011;25451;51.960;6.250;2022-09-28T14:40:07;1.63;;;0.50;;
39772;SDS011;25451;51.960;6.250;2022-09-28T14:43:18;0.93;;;0.40;;
39772;SDS011;25451;51.960;6.250;2022-09-28T14:45:45;2.03;;;0.50;;
39772;SDS011;25451;51.960;6.250;2022-09-28T14:48:12;1.50;;;0.60;;
39772;SDS011;25451;51.960;6.250;2022-09-28T14:50:39;0.80;;;0.40;;
39772;SDS011;25451;51.960;6.250;2022-09-28T14:53:08;1.37;;;0.47;;
39772;SDS011;25451;51.960;6.250;2022-09-28T14:55:39;1.95;;;0.43;;
39772;SDS011;25451;51.960;6.250;2022-09-28T14:58:14;2.90;;;0.40;;
39772;SDS011;25451;51.960;6.250;2022-09-28T15:00:46;2.33;;;0.50;;
39772;SDS011;25451;51.960;6.250;2022-09-28T15:03:15;1.02;;;0.40;;
39772;SDS011;25451;51.960;6.250;2022-09-28T15:05:41;0.70;;;0.50;;
39772;SDS011;25451;51.960;6.250;2022-09-28T15:08:11;1.98;;;0.50;;
39772;SDS011;25451;51.960;6.250;2022-09-28T15:10:37;2.38;;;0.60;;
39772;SDS011;25451;51.960;6.250;2022-09-28T15:13:25;2.87;;;0.60;;
39772;SDS011;25451;51.960;6.250;2022-09-28T15:16:12;2.28;;;0.60;;
39772;SDS011;25451;51.960;6.250;2022-09-28T15:21:29;1.00;;;0.60;;
39772;SDS011;25451;51.960;6.250;2022-09-28T15:23:57;1.20;;;0.50;;
39772;SDS011;25451;51.960;6.250;2022-09-28T15:26:31;2.17;;;0.60;;
39772;SDS011;25451;51.960;6.250;2022-09-28T15:28:58;1.73;;;0.57;;
39772;SDS011;25451;51.960;6.250;2022-09-28T15:31:27;1.45;;;0.50;;
39772;SDS011;25451;51.960;6.250;2022-09-28T15:33:58;1.85;;;0.50;;
39772;SDS011;25451;51.960;6.250;2022-09-28T15:36:43;1.08;;;0.57;;
39772;SDS011;25451;51.960;6.250;2022-09-28T15:39:14;3.13;;;0.70;;
39772;SDS011;25451;51.960;6.250;2022-09-28T15:41:44;1.55;;;0.60;;
39772;SDS011;25451;51.960;6.250;2022-09-28T15:46:42;1.53;;;0.70;;
39772;SDS011;25451;51.960;6.250;2022-09-28T15:49:22;1.25;;;0.60;;
39772;SDS011;25451;51.960;6.250;2022-09-28T15:51:50;1.20;;;0.60;;
39772;SDS011;25451;51.960;6.250;2022-09-28T15:54:28;1.00;;;0.60;;
39772;SDS011;25451;51.960;6.250;2022-09-28T15:57:00;1.02;;;0.50;;
39772;SDS011;25451;51.960;6.250;2022-09-28T15:59:36;1.98;;;0.70;;
39772;SDS011;25451;51.960;6.250;2022-09-28T16:02:16;1.70;;;0.57;;
39772;SDS011;25451;51.960;6.250;2022-09-28T16:04:50;1.63;;;0.60;;
39772;SDS011;25451;51.960;6.250;2022-09-28T16:12:22;2.50;;;0.60;;
39772;SDS011;25451;51.960;6.250;2022-09-28T16:14:50;1.42;;;0.70;;
39772;SDS011;25451;51.960;6.250;2022-09-28T16:17:20;2.30;;;0.77;;
39772;SDS011;25451;51.960;6.250;2022-09-28T16:20:03;2.55;;;0.98;;
39772;SDS011;25451;51.960;6.250;2022-09-28T16:22:43;2.25;;;1.10;;
39772;SDS011;25451;51.960;6.250;2022-09-28T16:25:19;3.20;;;1.10;;
39772;SDS011;25451;51.960;6.250;2022-09-28T16:27:47;1.75;;;0.80;;
39772;SDS011;25451;51.960;6.250;2022-09-28T16:38:13;1.30;;;0.70;;
39772;SDS011;25451;51.960;6.250;2022-09-28T16:40:40;1.67;;;0.60;;
39772;SDS011;25451;51.960;6.250;2022-09-28T16:43:07;1.63;;;0.60;;
39772;SDS011;25451;51.960;6.250;2022-09-28T16:45:39;1.58;;;0.60;;
39772;SDS011;25451;51.960;6.250;2022-09-28T16:48:05;3.43;;;0.60;;
39772;SDS011;25451;51.960;6.250;2022-09-28T16:50:30;0.83;;;0.67;;
39772;SDS011;25451;51.960;6.250;2022-09-28T16:53:05;1.27;;;0.53;;
39772;SDS011;25451;51.960;6.250;2022-09-28T16:55:55;2.25;;;0.60;;
39772;SDS011;25451;51.960;6.250;2022-09-28T16:58:22;1.35;;;0.55;;
39772;SDS011;25451;51.960;6.250;2022-09-28T17:00:49;1.55;;;0.50;;
39772;SDS011;25451;51.960;6.250;2022-09-28T17:03:16;1.02;;;0.50;;
39772;SDS011;25451;51.960;6.250;2022-09-28T17:05:45;1.02;;;0.50;;
39772;SDS011;25451;51.960;6.250;2022-09-28T17:08:12;2.20;;;0.70;;
39772;SDS011;25451;51.960;6.250;2022-09-28T17:10:49;0.90;;;0.50;;
39772;SDS011;25451;51.960;6.250;2022-09-28T17:13:17;1.15;;;0.60;;
39772;SDS011;25451;51.960;6.250;2022-09-28T17:15:44;1.48;;;0.60;;
39772;SDS011;25451;51.960;6.250;2022-09-28T17:18:14;1.30;;;0.65;;
39772;SDS011;25451;51.960;6.250;2022-09-28T17:20:42;3.47;;;0.70;;
39772;SDS011;25451;51.960;6.250;2022-09-28T17:23:10;2.70;;;0.80;;
39772;SDS011;25451;51.960;6.250;2022-09-28T17:25:35;3.30;;;1.03;;
39772;SDS011;25451;51.960;6.250;2022-09-28T17:28:01;2.53;;;0.70;;
39772;SDS011;25451;51.960;6.250;2022-09-28T17:30:28;1.75;;;0.75;;
39772;SDS011;25451;51.960;6.250;2022-09-28T17:32:54;1.50;;;0.80;;
39772;SDS011;25451;51.960;6.250;2022-09-28T17:35:19;1.73;;;0.70;;
39772;SDS011;25451;51.960;6.250;2022-09-28T17:37:45;3.05;;;0.90;;
39772;SDS011;25451;51.960;6.250;2022-09-28T17:40:24;1.83;;;0.77;;
39772;SDS011;25451;51.960;6.250;2022-09-28T17:42:52;1.95;;;0.80;;
39772;SDS011;25451;51.960;6.250;2022-09-28T17:45:20;1.55;;;0.80;;
39772;SDS011;25451;51.960;6.250;2022-09-28T17:47:46;1.97;;;0.70;;
39772;SDS011;25451;51.960;6.250;2022-09-28T17:50:17;1.63;;;0.80;;
39772;SDS011;25451;51.960;6.250;2022-09-28T17:52:49;2.45;;;0.77;;
39772;SDS011;25451;51.960;6.250;2022-09-28T17:55:17;1.77;;;0.80;;
39772;SDS011;25451;51.960;6.250;2022-09-28T17:57:44;2.10;;;0.85;;
39772;SDS011;25451;51.960;6.250;2022-09-28T18:00:10;2.60;;;0.80;;
39772;SDS011;25451;51.960;6.250;2022-09-28T18:02:37;2.35;;;1.00;;
39772;SDS011;25451;51.960;6.250;2022-09-28T18:05:05;1.90;;;1.00;;